Time;durP1;ratioP1;P1;durP2;ratioP2;P2;SDS_P1;SDS_P2;PMS_P1;PMS_P2;Temp;Humidity;BMP_temperature;BMP_pressure;BME280_temperature;BME280_humidity;BME280_pressure;Samples;Min_cycle;Max_cycle;Signal;HPM_P1;HPM_P2
2022/11/15 00:01:36;;;;;;;28.77;20.50;;;14.00;99.40;;;;;;5052931;28;20100;-78
2022/11/15 00:04:03;;;;;;;26.42;19.55;;;14.00;99.50;;;;;;5052315;28;20029;-77
2022/11/15 00:06:28;;;;;;;24.00;19.00;;;14.00;99.70;;;;;;5052671;28;20082;-77
2022/11/15 00:08:54;;;;;;;22.95;19.00;;;14.10;99.60;;;;;;5052439;28;20029;-76
2022/11/15 00:11:20;;;;;;;25.58;18.95;;;14.10;99.60;;;;;;5052863;28;20351;-76
2022/11/15 00:13:45;;;;;;;25.73;18.05;;;14.10;99.80;;;;;;5052570;28;20523;-78
2022/11/15 00:16:11;;;;;;;21.35;17.08;;;14.10;99.80;;;;;;5051991;28;20036;-78
2022/11/15 00:18:37;;;;;;;23.33;17.65;;;14.10;99.90;;;;;;5051151;28;20021;-78
2022/11/15 00:21:13;;;;;;;24.02;17.85;;;14.20;99.90;;;;;;5052577;28;20036;-79
2022/11/15 00:23:39;;;;;;;27.98;18.17;;;14.10;99.90;;;;;;5052552;28;20026;-79
2022/11/15 00:26:06;;;;;;;24.65;18.45;;;14.20;99.90;;;;;;5052470;28;20032;-76
2022/11/15 00:28:31;;;;;;;20.55;17.83;;;14.20;99.90;;;;;;5052424;28;20028;-79
2022/11/15 00:31:05;;;;;;;22.17;17.38;;;14.20;99.90;;;;;;5053697;28;20107;-77
2022/11/15 00:33:31;;;;;;;20.35;17.42;;;14.30;99.90;;;;;;5056491;28;20102;-80
2022/11/15 00:36:09;;;;;;;20.88;17.63;;;14.30;99.90;;;;;;5056153;28;20025;-80
2022/11/15 00:38:35;;;;;;;19.05;15.70;;;14.20;99.90;;;;;;5056239;28;20029;-76
2022/11/15 00:41:03;;;;;;;21.40;16.80;;;14.20;99.90;;;;;;5055913;28;20025;-78
2022/11/15 00:43:28;;;;;;;19.48;17.35;;;14.20;99.90;;;;;;5056363;28;20078;-80
2022/11/15 00:45:54;;;;;;;20.02;17.30;;;14.30;99.90;;;;;;5056022;28;20037;-80
2022/11/15 00:48:20;;;;;;;22.27;16.83;;;14.30;99.90;;;;;;5056146;28;20036;-76
2022/11/15 00:50:45;;;;;;;21.95;16.55;;;14.30;99.90;;;;;;5055922;28;20467;-76
2022/11/15 00:53:11;;;;;;;19.73;16.23;;;14.30;99.90;;;;;;5056028;28;20064;-75
2022/11/15 00:55:37;;;;;;;17.38;15.35;;;14.20;99.90;;;;;;5055553;28;20048;-75
2022/11/15 00:58:02;;;;;;;21.30;15.95;;;14.30;99.90;;;;;;5055922;28;20466;-76
2022/11/15 01:00:28;;;;;;;18.45;15.98;;;14.30;99.90;;;;;;5056163;28;20448;-76
2022/11/15 01:02:53;;;;;;;20.92;15.73;;;14.30;99.90;;;;;;5055548;28;20037;-76
2022/11/15 01:05:19;;;;;;;18.58;15.57;;;14.30;99.90;;;;;;5055528;28;20033;-75
2022/11/15 01:07:45;;;;;;;17.88;15.40;;;14.30;99.90;;;;;;5055805;28;20056;-76
2022/11/15 01:10:11;;;;;;;19.42;15.60;;;14.30;99.90;;;;;;5055247;28;20363;-76
2022/11/15 01:12:36;;;;;;;19.27;15.82;;;14.30;99.90;;;;;;5055615;28;20017;-75
2022/11/15 01:15:03;;;;;;;18.48;15.75;;;14.30;99.90;;;;;;5047796;28;20033;-75
2022/11/15 01:17:30;;;;;;;20.08;16.08;;;14.30;99.90;;;;;;5035327;28;20029;-75
2022/11/15 01:19:56;;;;;;;18.88;15.65;;;14.30;99.90;;;;;;5033747;28;20033;-76
2022/11/15 01:22:22;;;;;;;20.95;16.48;;;14.30;99.90;;;;;;5035676;28;20026;-75
2022/11/15 01:24:49;;;;;;;18.00;15.88;;;14.40;99.90;;;;;;5034457;28;20466;-75
2022/11/15 01:27:15;;;;;;;19.10;15.80;;;14.30;99.90;;;;;;5035462;28;20394;-77
2022/11/15 01:29:41;;;;;;;20.50;16.52;;;14.30;99.90;;;;;;5035386;28;20101;-78
2022/11/15 01:32:06;;;;;;;20.35;15.20;;;14.40;99.90;;;;;;5035195;28;20060;-77
2022/11/15 01:34:32;;;;;;;19.90;15.63;;;14.40;99.90;;;;;;5035359;28;20041;-80
2022/11/15 01:36:57;;;;;;;22.38;15.88;;;14.40;99.90;;;;;;5035279;28;20379;-77
2022/11/15 01:39:23;;;;;;;16.42;14.25;;;14.40;99.90;;;;;;5034949;28;20034;-78
2022/11/15 01:41:48;;;;;;;20.17;16.52;;;14.40;99.90;;;;;;5034591;28;20075;-77
2022/11/15 01:44:48;;;;;;;18.42;14.85;;;14.40;99.90;;;;;;5034583;28;20041;-78
2022/11/15 01:47:27;;;;;;;16.92;14.57;;;14.40;99.90;;;;;;5033708;28;20021;-77
2022/11/15 01:50:14;;;;;;;16.70;15.07;;;14.50;99.90;;;;;;5035007;28;20065;-78
2022/11/15 01:52:40;;;;;;;19.63;16.50;;;14.40;99.90;;;;;;5033581;28;20494;-77
2022/11/15 01:55:22;;;;;;;16.90;15.05;;;14.40;99.90;;;;;;5034454;28;20048;-77
2022/11/15 01:57:52;;;;;;;17.33;15.10;;;14.40;99.90;;;;;;5034886;28;20022;-78
2022/11/15 02:00:17;;;;;;;17.20;14.77;;;14.50;99.90;;;;;;5034750;28;20028;-78
2022/11/15 02:02:43;;;;;;;17.15;15.35;;;14.40;99.90;;;;;;5033309;28;20030;-77
2022/11/15 02:05:09;;;;;;;22.52;14.95;;;14.40;99.90;;;;;;5034554;28;20030;-79
2022/11/15 02:07:36;;;;;;;16.25;14.45;;;14.40;99.90;;;;;;5034580;28;20377;-76
2022/11/15 02:10:10;;;;;;;17.50;15.48;;;14.40;99.90;;;;;;5034795;28;20049;-76
2022/11/15 02:12:36;;;;;;;20.42;15.95;;;14.40;99.90;;;;;;5034488;28;20037;-75
2022/11/15 02:15:05;;;;;;;18.38;14.63;;;14.50;99.90;;;;;;5034543;28;20045;-75
2022/11/15 02:18:01;;;;;;;17.58;14.20;;;14.50;99.90;;;;;;5034262;28;20033;-76
2022/11/15 02:20:26;;;;;;;15.60;13.57;;;14.50;99.90;;;;;;5034297;28;20112;-75
2022/11/15 02:23:10;;;;;;;17.83;14.23;;;14.50;99.90;;;;;;5034181;28;20101;-76
2022/11/15 02:26:13;;;;;;;19.45;14.35;;;14.50;99.90;;;;;;5034264;28;20033;-75
2022/11/15 02:28:48;;;;;;;16.83;14.18;;;14.40;99.90;;;;;;5034326;28;20026;-78
2022/11/15 02:31:32;;;;;;;16.00;14.30;;;14.50;99.90;;;;;;5034192;28;20029;-77
2022/11/15 02:34:04;;;;;;;19.35;14.32;;;14.40;99.90;;;;;;5034726;28;20132;-75
2022/11/15 02:36:42;;;;;;;19.23;13.98;;;14.50;99.90;;;;;;5034238;28;20061;-75
2022/11/15 02:39:25;;;;;;;16.85;12.95;;;14.50;99.90;;;;;;5034877;28;20030;-75
2022/11/15 02:41:56;;;;;;;17.70;14.90;;;14.50;99.90;;;;;;5034643;28;20494;-76
2022/11/15 02:44:41;;;;;;;14.80;13.07;;;14.50;99.90;;;;;;5034754;28;20026;-77
2022/11/15 02:47:14;;;;;;;16.40;13.50;;;14.50;99.90;;;;;;5037640;28;20018;-75
2022/11/15 02:49:52;;;;;;;19.83;13.68;;;14.50;99.90;;;;;;5038276;28;20033;-76
2022/11/15 02:52:21;;;;;;;20.52;13.88;;;14.50;99.90;;;;;;5037012;28;20025;-78
2022/11/15 02:54:58;;;;;;;16.75;12.68;;;14.50;99.90;;;;;;5037001;28;20049;-75
2022/11/15 02:57:45;;;;;;;17.17;12.68;;;14.50;99.90;;;;;;5037174;28;20017;-75
2022/11/15 03:00:17;;;;;;;16.15;12.90;;;14.50;99.90;;;;;;5035737;28;20057;-76
2022/11/15 03:03:28;;;;;;;16.33;13.20;;;14.50;99.90;;;;;;5036336;28;20022;-76
2022/11/15 03:06:04;;;;;;;18.38;13.43;;;14.50;99.90;;;;;;5020083;28;20140;-79
2022/11/15 03:08:44;;;;;;;17.60;12.88;;;14.50;99.90;;;;;;5033511;28;20064;-78
2022/11/15 03:11:16;;;;;;;17.00;12.73;;;14.50;99.90;;;;;;5033668;28;20036;-77
2022/11/15 03:13:56;;;;;;;15.57;12.95;;;14.50;99.90;;;;;;5033419;28;20021;-80
2022/11/15 03:16:40;;;;;;;17.13;11.88;;;14.50;99.90;;;;;;5033092;28;20060;-77
2022/11/15 03:19:14;;;;;;;16.42;12.15;;;14.50;99.90;;;;;;5033336;28;20478;-79
2022/11/15 03:21:40;;;;;;;14.40;11.70;;;14.50;99.90;;;;;;5033607;28;20483;-76
2022/11/15 03:24:08;;;;;;;14.00;11.60;;;14.50;99.90;;;;;;5031845;28;20022;-79
2022/11/15 03:26:36;;;;;;;15.27;11.40;;;14.50;99.90;;;;;;5033281;28;20063;-78
2022/11/15 03:29:13;;;;;;;17.85;11.70;;;14.50;99.90;;;;;;5033250;28;20014;-76
2022/11/15 03:31:47;;;;;;;16.73;11.60;;;14.50;99.90;;;;;;5033249;28;20053;-78
2022/11/15 03:34:31;;;;;;;12.52;10.85;;;14.50;99.90;;;;;;5032745;28;20042;-76
2022/11/15 03:36:57;;;;;;;17.45;10.55;;;14.50;99.90;;;;;;5033010;28;20035;-79
2022/11/15 03:39:23;;;;;;;17.17;11.45;;;14.60;99.90;;;;;;5033009;28;20490;-78
2022/11/15 03:42:03;;;;;;;16.73;10.27;;;14.50;99.90;;;;;;5033264;28;20021;-76
2022/11/15 03:44:42;;;;;;;15.05;10.70;;;14.50;99.90;;;;;;5031734;28;20018;-79
2022/11/15 03:47:29;;;;;;;14.57;10.75;;;14.50;99.90;;;;;;5032596;28;20032;-78
2022/11/15 03:50:02;;;;;;;14.43;9.30;;;14.60;99.90;;;;;;5032695;28;20052;-79
2022/11/15 03:52:32;;;;;;;11.65;8.63;;;14.60;99.90;;;;;;5032969;28;20474;-79
2022/11/15 03:55:03;;;;;;;14.82;8.98;;;14.70;99.90;;;;;;5032763;28;20087;-75
2022/11/15 03:57:29;;;;;;;13.40;9.73;;;14.60;99.90;;;;;;5032841;28;20485;-79
2022/11/15 03:59:55;;;;;;;11.50;8.95;;;14.60;99.90;;;;;;5032756;28;20025;-79
2022/11/15 04:02:20;;;;;;;14.65;9.80;;;14.60;99.90;;;;;;5032760;28;20113;-77
2022/11/15 04:04:46;;;;;;;10.82;8.57;;;14.50;99.90;;;;;;5032575;28;20509;-78
2022/11/15 04:07:12;;;;;;;14.55;8.93;;;14.50;99.90;;;;;;5036415;28;20482;-80
2022/11/15 04:10:01;;;;;;;15.35;8.85;;;14.50;99.90;;;;;;5036754;28;20021;-80
2022/11/15 04:12:30;;;;;;;14.20;9.02;;;14.50;99.90;;;;;;5036692;28;20037;-79
2022/11/15 04:15:09;;;;;;;14.85;9.35;;;14.50;99.90;;;;;;5035326;28;20103;-79
2022/11/15 04:17:37;;;;;;;14.32;9.45;;;14.50;99.90;;;;;;5036719;28;20446;-79
2022/11/15 04:25:32;;;;;;;9.93;8.15;;;14.60;99.90;;;;;;5036864;28;20040;-79
2022/11/15 04:27:58;;;;;;;15.23;8.15;;;14.60;99.90;;;;;;5036610;28;20417;-78
2022/11/15 04:30:23;;;;;;;11.93;7.85;;;14.60;99.90;;;;;;5036477;28;20040;-78
2022/11/15 04:32:49;;;;;;;14.07;8.10;;;14.60;99.90;;;;;;5035962;28;20494;-79
2022/11/15 04:35:14;;;;;;;10.93;7.90;;;14.60;99.90;;;;;;5036315;28;20498;-79
2022/11/15 04:37:40;;;;;;;12.65;7.78;;;14.60;99.90;;;;;;5036521;28;20485;-79
2022/11/15 04:40:06;;;;;;;13.98;7.75;;;14.60;99.90;;;;;;5036234;28;20022;-80
2022/11/15 04:42:31;;;;;;;11.45;8.02;;;14.60;99.90;;;;;;5036339;28;20109;-78
2022/11/15 04:44:57;;;;;;;10.70;7.35;;;14.50;99.90;;;;;;5036257;28;20517;-75
2022/11/15 04:47:22;;;;;;;15.13;8.20;;;14.50;99.90;;;;;;5035676;28;20048;-75
2022/11/15 04:49:48;;;;;;;12.00;8.48;;;14.60;99.90;;;;;;5036295;28;20021;-75
2022/11/15 04:52:13;;;;;;;9.82;6.70;;;14.50;99.90;;;;;;5036117;28;20031;-76
2022/11/15 04:54:41;;;;;;;9.75;7.43;;;14.50;99.90;;;;;;5035838;28;20046;-76
2022/11/15 04:57:07;;;;;;;12.27;7.32;;;14.50;99.90;;;;;;5036058;28;20021;-76
2022/11/15 04:59:33;;;;;;;12.48;7.40;;;14.60;99.90;;;;;;5036303;28;20032;-75
2022/11/15 05:01:58;;;;;;;15.45;7.65;;;14.60;99.90;;;;;;5035671;28;20021;-74
2022/11/15 05:04:24;;;;;;;11.00;6.72;;;14.50;99.90;;;;;;5035742;28;20037;-75
2022/11/15 05:06:51;;;;;;;13.05;7.07;;;14.50;99.90;;;;;;5035668;28;20096;-75
2022/11/15 05:09:18;;;;;;;11.07;6.45;;;14.50;99.90;;;;;;5035825;28;20033;-75
2022/11/15 05:11:44;;;;;;;8.65;6.22;;;14.40;99.90;;;;;;5035756;28;20041;-74
2022/11/15 05:14:09;;;;;;;13.73;6.40;;;14.40;99.90;;;;;;5035811;28;20049;-75
2022/11/15 05:16:36;;;;;;;10.30;6.60;;;14.50;99.80;;;;;;5034725;28;20390;-76
2022/11/15 05:19:01;;;;;;;7.72;5.88;;;14.50;99.80;;;;;;5034720;28;20084;-75
2022/11/15 05:21:27;;;;;;;10.93;5.43;;;14.50;99.70;;;;;;5035356;28;20022;-75
2022/11/15 05:23:52;;;;;;;6.35;4.85;;;14.40;99.60;;;;;;5035651;28;20025;-76
2022/11/15 05:26:18;;;;;;;9.82;5.78;;;14.40;99.60;;;;;;5035365;28;20462;-76
2022/11/15 05:28:44;;;;;;;12.50;5.68;;;14.50;99.50;;;;;;5035339;28;20426;-75
2022/11/15 05:31:12;;;;;;;8.65;5.60;;;14.50;99.40;;;;;;5035022;28;20026;-75
2022/11/15 05:33:39;;;;;;;7.53;5.38;;;14.40;99.40;;;;;;5035230;28;20048;-75
2022/11/15 05:36:15;;;;;;;9.90;5.65;;;14.30;99.50;;;;;;5035202;28;20105;-76
2022/11/15 05:38:41;;;;;;;10.65;5.93;;;14.30;99.50;;;;;;5035158;28;20029;-77
2022/11/15 05:41:07;;;;;;;10.00;5.68;;;14.30;99.50;;;;;;5017587;28;20540;-76
2022/11/15 05:43:36;;;;;;;9.10;5.35;;;14.20;99.50;;;;;;5035353;28;20030;-75
2022/11/15 05:46:04;;;;;;;12.77;5.57;;;14.20;99.50;;;;;;5034517;28;20048;-76
2022/11/15 05:48:29;;;;;;;9.95;4.82;;;14.20;99.50;;;;;;5049534;28;20029;-76
2022/11/15 05:50:56;;;;;;;11.38;5.97;;;14.30;99.30;;;;;;5054785;28;20031;-77
2022/11/15 05:53:23;;;;;;;9.10;4.93;;;14.20;99.50;;;;;;5054718;28;20024;-76
2022/11/15 05:55:48;;;;;;;13.23;4.70;;;14.10;99.50;;;;;;5054298;28;20029;-75
2022/11/15 05:58:14;;;;;;;9.57;4.45;;;14.20;99.40;;;;;;5054596;28;20027;-73
2022/11/15 06:00:42;;;;;;;7.82;4.75;;;14.20;99.30;;;;;;5051566;28;20057;-74
2022/11/15 06:03:08;;;;;;;9.40;4.60;;;14.10;99.40;;;;;;5049084;28;20017;-74
2022/11/15 06:05:34;;;;;;;6.97;4.20;;;14.20;99.30;;;;;;5054479;28;20470;-74
2022/11/15 06:08:00;;;;;;;5.82;3.70;;;14.20;99.20;;;;;;5053630;28;20032;-73
2022/11/15 06:10:26;;;;;;;7.18;3.72;;;14.30;98.10;;;;;;5056635;28;20017;-78
2022/11/15 06:13:02;;;;;;;7.10;3.80;;;14.50;97.30;;;;;;5057405;28;20040;-78
2022/11/15 06:15:28;;;;;;;7.95;3.92;;;14.70;96.60;;;;;;5056334;28;20045;-73
2022/11/15 06:17:57;;;;;;;6.43;3.03;;;14.60;96.80;;;;;;5053825;28;20083;-78
2022/11/15 06:20:24;;;;;;;6.38;2.78;;;14.60;97.30;;;;;;5053244;28;20352;-78
2022/11/15 06:22:49;;;;;;;5.15;3.03;;;14.60;97.00;;;;;;5037296;28;20017;-78
2022/11/15 06:25:15;;;;;;;6.38;2.55;;;14.70;97.10;;;;;;5047734;28;20485;-78
2022/11/15 06:27:40;;;;;;;9.40;3.00;;;14.80;96.70;;;;;;5042747;28;20056;-77
2022/11/15 06:30:06;;;;;;;6.75;2.88;;;14.80;96.70;;;;;;5053106;28;20075;-79
2022/11/15 06:32:32;;;;;;;6.13;2.55;;;14.70;96.90;;;;;;5052546;28;20454;-76
2022/11/15 06:34:57;;;;;;;5.75;2.55;;;14.60;97.20;;;;;;5053423;28;20067;-78
2022/11/15 06:37:23;;;;;;;5.05;2.13;;;14.70;97.10;;;;;;5060850;28;20458;-76
2022/11/15 06:39:48;;;;;;;5.28;2.00;;;14.90;96.90;;;;;;5055222;28;20428;-75
2022/11/15 06:42:14;;;;;;;12.13;3.10;;;15.00;96.60;;;;;;5055745;28;20048;-75
2022/11/15 06:44:39;;;;;;;5.60;2.70;;;14.90;97.30;;;;;;5053141;28;20059;-78
2022/11/15 06:47:05;;;;;;;8.25;2.60;;;14.70;97.70;;;;;;5055652;28;20100;-72
2022/11/15 06:49:31;;;;;;;10.35;2.92;;;14.70;98.00;;;;;;5062156;28;20086;-76
2022/11/15 06:51:56;;;;;;;7.88;2.83;;;14.60;98.10;;;;;;5047701;28;20075;-75
2022/11/15 06:54:22;;;;;;;6.78;2.90;;;14.70;98.20;;;;;;5050109;28;20390;-77
2022/11/15 06:56:47;;;;;;;9.27;2.30;;;14.60;98.40;;;;;;5045881;28;20454;-76
2022/11/15 06:59:13;;;;;;;8.13;2.35;;;14.60;98.20;;;;;;5043027;28;20025;-75
2022/11/15 07:01:38;;;;;;;6.15;2.72;;;14.70;98.10;;;;;;5055132;28;20020;-77
2022/11/15 07:04:04;;;;;;;6.55;2.38;;;14.60;98.10;;;;;;5051549;28;20044;-73
2022/11/15 07:06:30;;;;;;;9.38;3.25;;;14.70;98.10;;;;;;5049742;28;20021;-70
2022/11/15 07:08:55;;;;;;;6.40;2.70;;;14.70;97.90;;;;;;5057678;28;20480;-73
2022/11/15 07:11:21;;;;;;;6.63;3.22;;;14.70;97.60;;;;;;5042964;28;20039;-70
2022/11/15 07:13:46;;;;;;;6.47;2.97;;;14.40;96.90;;;;;;5055871;28;20037;-72
2022/11/15 07:16:12;;;;;;;5.10;3.00;;;13.80;97.60;;;;;;5045324;28;20025;-75
2022/11/15 07:18:39;;;;;;;6.10;3.30;;;13.60;98.40;;;;;;5052269;28;20147;-72
2022/11/15 07:21:07;;;;;;;6.75;2.78;;;13.20;99.10;;;;;;5050051;28;20017;-81
2022/11/15 07:23:33;;;;;;;17.48;7.75;;;13.10;99.80;;;;;;5050320;28;20111;-79
2022/11/15 07:25:59;;;;;;;10.23;4.00;;;13.00;99.90;;;;;;5047159;28;20065;-78
2022/11/15 07:28:25;;;;;;;4.75;2.58;;;13.20;99.90;;;;;;5056247;28;20021;-73
2022/11/15 07:30:51;;;;;;;8.07;2.45;;;13.50;99.40;;;;;;5052335;28;20028;-76
2022/11/15 07:33:17;;;;;;;9.27;2.38;;;13.50;99.50;;;;;;5051329;28;20112;-76
2022/11/15 07:35:42;;;;;;;10.98;1.88;;;13.50;99.70;;;;;;5061459;28;20040;-75
2022/11/15 07:38:08;;;;;;;11.70;2.97;;;13.70;99.90;;;;;;5054564;28;20044;-75
2022/11/15 07:40:34;;;;;;;8.68;2.13;;;13.60;99.90;;;;;;5062408;28;20103;-75
2022/11/15 07:43:06;;;;;;;6.43;2.78;;;13.60;99.90;;;;;;5049444;28;20521;-74
2022/11/15 07:45:33;;;;;;;6.60;2.50;;;13.20;99.90;;;;;;5062150;28;20066;-74
2022/11/15 07:47:59;;;;;;;11.40;3.08;;;13.10;99.90;;;;;;5049836;28;20287;-78
2022/11/15 07:50:26;;;;;;;7.80;3.47;;;13.10;99.90;;;;;;5035748;28;20532;-78
2022/11/15 07:52:57;;;;;;;11.23;3.35;;;13.00;99.90;;;;;;5037122;28;20021;-78
2022/11/15 07:55:23;;;;;;;9.07;3.33;;;13.10;99.90;;;;;;5046049;28;20497;-78
2022/11/15 07:57:49;;;;;;;10.32;3.00;;;13.00;99.90;;;;;;5032269;28;20033;-80
2022/11/15 08:00:15;;;;;;;9.95;3.65;;;13.40;99.90;;;;;;5049486;28;20127;-77
2022/11/15 08:02:41;;;;;;;5.80;3.00;;;13.20;99.90;;;;;;5042826;28;20032;-76
2022/11/15 08:05:07;;;;;;;8.95;2.83;;;13.60;99.90;;;;;;5048742;28;20449;-79
2022/11/15 08:07:32;;;;;;;6.47;2.95;;;13.40;99.90;;;;;;5052293;28;20033;-80
2022/11/15 08:09:58;;;;;;;8.88;1.92;;;13.70;99.90;;;;;;5050224;28;20467;-80
2022/11/15 08:12:24;;;;;;;5.85;2.75;;;13.90;99.90;;;;;;5052427;28;20452;-76
2022/11/15 08:14:49;;;;;;;9.70;3.05;;;13.80;99.50;;;;;;5045373;28;20502;-80
2022/11/15 08:17:15;;;;;;;7.38;2.45;;;13.70;99.70;;;;;;5049516;28;20017;-79
2022/11/15 08:19:40;;;;;;;8.32;3.25;;;13.60;99.90;;;;;;5045963;28;20030;-79
2022/11/15 08:22:07;;;;;;;8.05;1.90;;;13.80;99.50;;;;;;5047835;28;20025;-73
2022/11/15 08:24:33;;;;;;;7.18;2.47;;;13.90;99.90;;;;;;5045860;28;20057;-79
2022/11/15 08:26:59;;;;;;;4.82;2.00;;;14.00;99.40;;;;;;5037390;28;20025;-80
2022/11/15 08:29:25;;;;;;;6.18;2.03;;;14.00;99.00;;;;;;5042340;28;20532;-80
2022/11/15 08:31:50;;;;;;;5.57;2.00;;;14.00;98.40;;;;;;5052351;28;20033;-70
2022/11/15 08:34:17;;;;;;;4.63;2.17;;;14.00;99.10;;;;;;5051080;28;20371;-71
2022/11/15 08:36:43;;;;;;;5.95;2.08;;;14.10;98.60;;;;;;5051769;28;20100;-69
2022/11/15 08:39:12;;;;;;;5.95;2.03;;;14.00;98.40;;;;;;5049651;28;20031;-70
2022/11/15 08:41:38;;;;;;;5.38;2.30;;;13.90;98.50;;;;;;5052347;28;20021;-71
2022/11/15 08:44:03;;;;;;;6.15;1.70;;;13.70;98.80;;;;;;5051849;28;20371;-68
2022/11/15 08:46:29;;;;;;;3.92;1.30;;;13.70;99.30;;;;;;5052225;28;20096;-69
2022/11/15 08:48:54;;;;;;;3.95;1.98;;;14.00;99.10;;;;;;5052289;28;20043;-73
2022/11/15 08:51:20;;;;;;;4.63;2.10;;;14.00;98.10;;;;;;5050669;28;20036;-76
2022/11/15 08:53:45;;;;;;;6.85;1.60;;;13.90;98.70;;;;;;5053961;28;20032;-71
2022/11/15 08:56:13;;;;;;;6.20;1.80;;;13.90;98.90;;;;;;5059851;28;20385;-72
2022/11/15 08:58:39;;;;;;;4.88;1.58;;;13.80;98.30;;;;;;5062006;28;20033;-75
2022/11/15 09:01:05;;;;;;;6.78;1.83;;;13.90;99.00;;;;;;5056667;28;20017;-69
2022/11/15 09:03:31;;;;;;;2.88;1.40;;;13.90;98.20;;;;;;5059128;28;20491;-71
2022/11/15 09:05:58;;;;;;;3.30;1.42;;;14.00;98.50;;;;;;5047291;28;20040;-70
2022/11/15 09:08:24;;;;;;;5.03;1.50;;;14.30;98.00;;;;;;5056044;28;20067;-69
2022/11/15 09:10:51;;;;;;;6.35;1.20;;;14.40;97.70;;;;;;5055135;28;20017;-73
2022/11/15 09:13:16;;;;;;;5.85;1.45;;;14.40;97.50;;;;;;5059577;28;20025;-70
2022/11/15 09:15:42;;;;;;;4.50;1.25;;;14.50;97.40;;;;;;5052717;28;20484;-69
2022/11/15 09:18:08;;;;;;;5.90;1.50;;;14.40;96.90;;;;;;5054204;28;20021;-70
2022/11/15 09:20:34;;;;;;;5.70;1.27;;;14.40;97.30;;;;;;5055181;28;20103;-70
2022/11/15 09:23:01;;;;;;;5.78;1.67;;;14.40;96.90;;;;;;5055101;28;20033;-69
2022/11/15 09:25:27;;;;;;;8.98;1.65;;;14.30;97.00;;;;;;5046152;28;20067;-70
2022/11/15 09:27:52;;;;;;;6.20;1.30;;;14.10;97.10;;;;;;5039592;28;20028;-72
2022/11/15 09:30:18;;;;;;;8.13;1.58;;;14.40;97.70;;;;;;5056247;28;20020;-76
2022/11/15 09:32:43;;;;;;;7.43;1.73;;;14.60;97.40;;;;;;5053315;28;20041;-79
2022/11/15 09:35:09;;;;;;;6.88;1.58;;;14.50;96.60;;;;;;5056029;28;20098;-78
2022/11/15 09:37:34;;;;;;;7.93;1.45;;;14.30;97.00;;;;;;5038969;28;20030;-78
2022/11/15 09:40:00;;;;;;;6.63;1.40;;;14.20;97.30;;;;;;5036754;28;20028;-78
2022/11/15 09:42:47;;;;;;;6.57;1.17;;;14.30;96.70;;;;;;5047683;28;20075;-78
2022/11/15 09:45:34;;;;;;;11.38;1.27;;;14.50;97.40;;;;;;5050624;28;20076;-79
2022/11/15 09:48:43;;;;;;;3.58;0.98;;;14.50;96.60;;;;;;5044354;28;20041;-78
2022/11/15 09:51:17;;;;;;;6.85;1.52;;;14.60;97.10;;;;;;5054601;28;20032;-79
2022/11/15 09:53:57;;;;;;;8.93;1.35;;;14.50;96.40;;;;;;5049081;28;20043;-78
2022/11/15 09:56:28;;;;;;;7.05;1.23;;;14.70;97.00;;;;;;5054671;28;20470;-79
2022/11/15 09:59:15;;;;;;;4.30;1.13;;;14.80;96.50;;;;;;5053338;28;20079;-77
2022/11/15 10:01:56;;;;;;;7.90;1.27;;;14.90;96.70;;;;;;5054325;28;20112;-79
2022/11/15 10:04:24;;;;;;;6.10;1.17;;;14.50;96.00;;;;;;5051950;28;20120;-80
2022/11/15 10:07:00;;;;;;;5.75;1.73;;;14.50;96.50;;;;;;5052373;28;20028;-79
2022/11/15 10:09:38;;;;;;;7.20;0.98;;;14.70;97.10;;;;;;5048816;28;20393;-79
2022/11/15 10:12:04;;;;;;;5.25;1.17;;;15.00;96.70;;;;;;5054089;28;20025;-78
2022/11/15 10:14:30;;;;;;;5.60;1.42;;;15.00;95.60;;;;;;5053799;28;20032;-72
2022/11/15 10:17:09;;;;;;;5.43;1.20;;;14.90;95.70;;;;;;5056700;28;20556;-79
2022/11/15 10:19:53;;;;;;;4.57;1.20;;;14.60;96.10;;;;;;5054405;28;20485;-79
2022/11/15 10:22:30;;;;;;;6.45;1.40;;;14.70;96.10;;;;;;5053745;28;20367;-79
2022/11/15 10:25:08;;;;;;;10.35;1.13;;;14.70;96.30;;;;;;5054463;28;20021;-79
2022/11/15 10:27:34;;;;;;;6.03;1.05;;;14.90;96.50;;;;;;5054121;28;20036;-78
2022/11/15 10:30:00;;;;;;;10.18;1.30;;;14.80;95.50;;;;;;5066732;28;20032;-78
2022/11/15 10:32:26;;;;;;;8.02;1.15;;;14.80;95.70;;;;;;5074011;28;20484;-77
2022/11/15 10:34:52;;;;;;;4.70;0.90;;;14.70;96.10;;;;;;5073994;28;20033;-78
2022/11/15 10:37:31;;;;;;;7.55;1.58;;;14.80;96.50;;;;;;5052261;28;20036;-78
2022/11/15 10:40:15;;;;;;;4.70;1.00;;;14.80;95.90;;;;;;5053697;28;20025;-78
2022/11/15 10:42:40;;;;;;;6.85;1.30;;;15.00;96.20;;;;;;5050940;28;20026;-78
2022/11/15 10:45:27;;;;;;;6.55;1.02;;;15.00;95.80;;;;;;5049185;28;20543;-77
2022/11/15 10:47:53;;;;;;;6.40;1.13;;;14.80;95.20;;;;;;5051687;28;20033;-76
2022/11/15 10:50:28;;;;;;;5.55;0.90;;;14.70;95.80;;;;;;5051012;28;20024;-78
2022/11/15 10:52:54;;;;;;;5.50;0.90;;;14.80;95.80;;;;;;5053691;28;20450;-79
2022/11/15 10:55:25;;;;;;;4.90;1.10;;;14.80;95.90;;;;;;5053710;28;20510;-76
2022/11/15 10:57:53;;;;;;;5.15;1.20;;;14.70;96.30;;;;;;5051528;28;20057;-78
2022/11/15 11:00:19;;;;;;;4.93;1.00;;;14.80;95.80;;;;;;5052927;28;20360;-73
2022/11/15 11:03:20;;;;;;;7.45;1.10;;;14.70;96.20;;;;;;5053546;28;20051;-77
2022/11/15 11:05:45;;;;;;;9.68;1.42;;;14.70;95.30;;;;;;5051361;28;20025;-76
2022/11/15 11:08:13;;;;;;;4.50;1.20;;;14.60;95.60;;;;;;5053154;28;20029;-77
2022/11/15 11:10:54;;;;;;;4.10;0.80;;;14.70;95.70;;;;;;5053531;28;20031;-77
2022/11/15 11:13:28;;;;;;;7.20;1.13;;;14.70;95.50;;;;;;5052520;28;20047;-78
2022/11/15 11:16:18;;;;;;;5.97;1.00;;;14.60;95.60;;;;;;5049843;28;20131;-78
2022/11/15 11:18:55;;;;;;;8.00;1.40;;;14.70;95.60;;;;;;5049994;28;20025;-78
2022/11/15 11:21:45;;;;;;;6.50;1.30;;;14.70;95.50;;;;;;5050907;28;20044;-77
2022/11/15 11:24:40;;;;;;;6.28;1.05;;;14.60;95.70;;;;;;5052808;28;20021;-77
2022/11/15 11:27:34;;;;;;;5.55;1.05;;;14.80;95.60;;;;;;5028280;28;20552;-78
2022/11/15 11:30:17;;;;;;;3.55;0.65;;;14.90;96.10;;;;;;5033118;28;20096;-78
2022/11/15 11:33:01;;;;;;;13.23;1.80;;;15.00;96.10;;;;;;5037893;28;20035;-79
2022/11/15 11:35:42;;;;;;;6.70;1.15;;;15.00;96.10;;;;;;5052173;28;20072;-77
2022/11/15 11:38:38;;;;;;;5.32;1.40;;;15.00;96.30;;;;;;5051141;28;20486;-76
2022/11/15 11:41:21;;;;;;;7.55;1.45;;;15.00;95.80;;;;;;5049348;28;20032;-79
2022/11/15 11:44:14;;;;;;;4.97;1.08;;;15.10;95.50;;;;;;5051226;28;20037;-74
2022/11/15 11:46:45;;;;;;;;;;;15.10;95.60;;;;;;5052294;28;20036;-79
2022/11/15 11:49:41;;;;;;;3.95;0.85;;;15.30;95.20;;;;;;5055626;28;19991;-78
2022/11/15 11:52:28;;;;;;;12.50;1.73;;;15.30;94.90;;;;;;5044177;28;20033;-79
2022/11/15 11:54:58;;;;;;;6.32;1.92;;;15.30;94.90;;;;;;5047278;28;20120;-80
2022/11/15 11:57:32;;;;;;;5.65;1.70;;;15.30;94.80;;;;;;5051145;28;20091;-78
2022/11/15 12:00:12;;;;;;;6.03;2.67;;;15.30;94.60;;;;;;5052418;28;20032;-77
2022/11/15 12:02:41;;;;;;;7.03;2.55;;;15.30;94.60;;;;;;5047951;28;20033;-78
2022/11/15 12:05:18;;;;;;;6.47;2.40;;;15.30;94.70;;;;;;5050691;28;20397;-73
2022/11/15 12:07:46;;;;;;;9.15;2.50;;;15.30;94.60;;;;;;5052835;28;20049;-79
2022/11/15 12:10:25;;;;;;;9.25;2.40;;;15.40;94.60;;;;;;5050770;28;20021;-78
2022/11/15 12:13:33;;;;;;;6.97;1.75;;;15.40;94.50;;;;;;5050059;28;20100;-76
2022/11/15 12:16:17;;;;;;;6.68;1.63;;;15.40;94.60;;;;;;5003594;28;20048;-79
2022/11/15 12:18:49;;;;;;;6.53;1.95;;;15.40;94.50;;;;;;5005118;28;20088;-79
2022/11/15 12:21:24;;;;;;;6.53;1.67;;;15.40;94.30;;;;;;5033104;28;20037;-80
2022/11/15 12:23:54;;;;;;;8.38;1.95;;;15.40;94.40;;;;;;5040321;28;20036;-72
2022/11/15 12:26:27;;;;;;;7.93;2.10;;;15.40;94.50;;;;;;5047751;28;20025;-69
2022/11/15 12:28:57;;;;;;;11.65;2.17;;;15.40;94.50;;;;;;5048845;28;20032;-70
2022/11/15 12:31:27;;;;;;;9.80;1.92;;;15.50;94.50;;;;;;5048534;28;20075;-71
2022/11/15 12:33:57;;;;;;;12.68;1.90;;;15.50;94.70;;;;;;5052520;28;20045;-70
2022/11/15 12:36:23;;;;;;;14.40;1.80;;;15.50;94.70;;;;;;5044410;28;20037;-70
2022/11/15 12:39:08;;;;;;;12.70;1.88;;;15.60;94.70;;;;;;5041203;28;20032;-69
2022/11/15 12:41:36;;;;;;;11.82;1.55;;;15.60;94.70;;;;;;5037917;28;20017;-69
2022/11/15 12:44:04;;;;;;;9.38;1.35;;;15.60;94.70;;;;;;5056956;28;20029;-69
2022/11/15 12:46:29;;;;;;;7.57;1.50;;;15.60;94.70;;;;;;5047412;28;20025;-70
2022/11/15 12:48:56;;;;;;;9.88;1.63;;;15.70;94.70;;;;;;5036937;28;20033;-69
2022/11/15 12:51:42;;;;;;;11.55;1.70;;;15.70;94.80;;;;;;5037730;28;20013;-70
2022/11/15 12:54:23;;;;;;;6.55;1.23;;;15.70;94.80;;;;;;5055670;28;20116;-76
2022/11/15 12:57:03;;;;;;;7.90;1.80;;;15.80;95.00;;;;;;5060443;28;20025;-77
2022/11/15 12:59:51;;;;;;;11.43;1.55;;;15.80;94.60;;;;;;5053366;28;20377;-78
2022/11/15 13:02:37;;;;;;;9.93;1.70;;;15.90;94.90;;;;;;5044162;28;20080;-78
2022/11/15 13:05:22;;;;;;;7.57;1.25;;;15.90;95.00;;;;;;5048571;28;20037;-76